Terminal Aerodrome Forecast
Issued by NWS Twin Cities, MN

Home | Current Version | Previous Version | Graphics & Text | Print | Product List | Glossary On
Versions: 1 2 3 4 5 6 7 8 9 10 11 12 13 14 15 16 17 18 19 20 21 22 23 24 25 26 27 28 29
000
FTUS43 KMPX 190201 AAA
TAFMSP
TAF AMD
KMSP 190201Z 1902/2006 13009KT P6SM SCT008 BKN020 OVC045
      TEMPO 1902/1904 BKN008 OVC045
     FM190400 12007KT P6SM OVC007
     FM191500 13012KT P6SM OVC017
     FM191900 13014G22KT P6SM SCT020 OVC050=

USA.gov is the U.S. government's official web portal to all federal, state and local government web resources and services.